Latest Weather Observations for Naracoorte

IDS60801

Issued at 3:01 pm CST Friday 26 May 2017 (issued every 30 minutes, with the page automatically refreshed every 10 minutes)

About weather observations | Map of weather stations | Latest weather observations for SA | Other Formats
Station Details ID: 026099 Name: NARACOORTE AERODROME Lat: -36.98 Lon: 140.73 Height: 49.72 m
Data from the previous 72 hours. | See also: Recent months at Naracoorte
Date/Time
CST
Temp
°C
App
Temp
°C
Dew
Point
°C
Rel
Hum
%
Delta-T
°C
Wind Press
QNH
hPa
Press
MSL
hPa
Rain since
9am
mm
Dir  Spd
km/h
Gust
km/h
Spd
kts
Gust
kts
26/03:00pm 15.5 13.0 9.8 69 3.0 N 13 19 7 10 1018.7 1018.7 0.2
26/02:30pm 15.4 12.8 9.3 67 3.1 NNE 13 19 7 10 1019.0 1019.0 0.2
26/02:00pm 15.3 13.1 9.4 68 3.0 N 11 17 6 9 1019.2 1019.2 0.0
26/01:30pm 15.0 12.2 8.7 66 3.2 N 13 17 7 9 1019.5 1019.5 0.0
26/01:00pm 15.8 14.1 9.7 67 3.2 NE 9 17 5 9 1019.8 1019.8 0.0
26/12:30pm 15.0 12.1 8.3 64 3.4 NNE 13 15 7 8 1020.3 1020.3 0.0
26/12:00pm 15.1 13.9 8.1 63 3.5 NE 4 13 2 7 1020.9 1020.9 0.0
26/11:30am 14.6 13.1 9.2 70 2.8 NNE 7 13 4 7 1021.5 1021.5 0.0
26/11:00am 14.3 12.6 9.7 74 2.4 NE 9 13 5 7 1022.0 1022.0 0.0
26/10:30am 13.7 12.2 10.7 82 1.6 ENE 9 13 5 7 1022.3 1022.3 0.0
26/10:00am 12.8 11.3 10.7 87 1.1 NE 9 13 5 7 1022.5 1022.5 0.0
26/09:30am 12.1 10.7 11.0 93 0.6 NE 9 11 5 6 1022.5 1022.5 0.0
26/09:00am 11.4 10.0 10.8 96 0.3 NE 9 13 5 7 1022.5 1022.5 1.4
26/08:30am 10.9 9.4 10.4 97 0.3 NE 9 11 5 6 1022.7 1022.7 1.4
26/08:00am 10.4 10.4 9.9 97 0.3 CALM 0 0 0 0 1022.6 1022.6 1.4
26/07:30am 9.9 9.8 9.4 97 0.2 CALM 0 0 0 0 1022.4 1022.4 1.4
26/07:00am 9.8 9.7 9.3 97 0.2 CALM 0 0 0 0 1022.2 1022.2 1.4
26/06:30am 9.6 9.4 9.1 97 0.2 CALM 0 0 0 0 1022.1 1022.1 1.4
26/06:00am 9.4 9.2 8.9 97 0.2 CALM 0 0 0 0 1021.9 1021.9 1.4
26/05:30am 9.3 9.0 8.8 97 0.2 CALM 0 0 0 0 1021.7 1021.7 1.4
26/05:00am 9.1 8.8 8.6 97 0.2 CALM 0 0 0 0 1021.4 1021.4 1.4
26/04:30am 8.9 7.4 8.5 97 0.2 WSW 6 11 3 6 1021.2 1021.2 1.4
26/04:00am 9.0 8.7 8.6 97 0.2 CALM 0 0 0 0 1021.1 1021.1 1.4
26/03:30am 8.5 8.1 8.1 97 0.2 CALM 0 0 0 0 1021.0 1021.0 1.4
26/03:00am 8.7 8.3 8.3 97 0.2 CALM 0 0 0 0 1021.1 1021.1 1.4
26/02:30am 9.7 9.5 9.2 97 0.2 CALM 0 0 0 0 1021.1 1021.1 1.4
26/02:00am 10.2 10.2 9.7 97 0.3 CALM 0 0 0 0 1021.2 1021.2 1.4
26/01:30am 10.4 10.4 9.9 97 0.3 CALM 0 0 0 0 1021.1 1021.1 1.4
26/01:00am 10.2 10.2 9.7 97 0.3 CALM 0 0 0 0 1021.3 1021.3 1.4
26/12:30am 9.7 9.5 9.2 97 0.2 CALM 0 0 0 0 1021.3 1021.3 1.4
26/12:00am 8.6 8.1 8.0 96 0.3 CALM 0 0 0 0 1021.6 1021.6 1.4
 
Date/Time
CST
Temp
°C
App
Temp
°C
Dew
Point
°C
Rel
Hum
%
Delta-T
°C
Wind Press
QNH
hPa
Press
MSL
hPa
Rain since
9am
mm
Dir  Spd
km/h
Gust
km/h
Spd
kts
Gust
kts
25/11:30pm 9.2 8.9 8.6 96 0.3 CALM 0 0 0 0 1021.5 1021.5 1.4
25/11:00pm 10.1 10.0 9.5 96 0.3 CALM 0 0 0 0 1021.2 1021.2 1.2
25/10:30pm 9.0 8.6 8.2 95 0.4 CALM 0 0 0 0 1021.2 1021.2 1.2
25/10:00pm 10.7 10.8 10.1 96 0.3 CALM 0 0 0 0 1021.0 1021.0 1.2
25/09:30pm 10.8 9.1 10.0 95 0.4 SW 9 9 5 5 1020.9 1020.9 1.2
25/09:00pm 11.4 9.5 10.5 94 0.5 SW 11 13 6 7 1020.8 1020.8 1.2
25/08:30pm 13.4 11.3 12.5 94 0.5 SW 15 20 8 11 1020.4 1020.4 1.2
25/08:00pm 13.5 11.5 12.6 94 0.5 WNW 15 20 8 11 1020.2 1020.2 0.8
25/07:30pm 14.1 11.8 13.0 93 0.6 NW 17 20 9 11 1019.9 1019.9 0.8
25/07:00pm 14.0 12.4 12.9 93 0.6 NW 13 17 7 9 1019.8 1019.8 0.6
25/06:30pm 14.5 12.7 13.2 92 0.7 WNW 15 20 8 11 1019.6 1019.6 0.6
25/06:00pm 14.8 13.1 13.5 92 0.7 WNW 15 20 8 11 1019.5 1019.5 0.6
25/05:30pm 15.0 13.2 13.4 90 0.9 WNW 15 17 8 9 1019.2 1019.2 0.6
25/05:00pm 15.2 12.9 13.1 87 1.2 WNW 17 22 9 12 1018.9 1018.9 0.6
25/04:30pm 16.1 13.3 13.2 83 1.6 WNW 20 26 11 14 1018.6 1018.6 0.6
25/04:00pm 16.3 13.2 13.4 83 1.6 WNW 22 32 12 17 1018.6 1018.6 0.6
25/03:30pm 17.0 13.6 13.7 81 1.9 WNW 24 35 13 19 1018.6 1018.6 0.6
25/03:00pm 16.2 11.9 13.1 82 1.7 W 28 35 15 19 1018.5 1018.5 0.6
25/02:30pm 16.7 12.0 13.2 80 2.0 W 30 39 16 21 1018.4 1018.4 0.2
25/02:00pm 17.4 13.6 13.7 79 2.1 WNW 26 35 14 19 1018.5 1018.5 0.2
25/01:30pm 16.6 11.2 12.9 79 2.1 WNW 33 44 18 24 1018.8 1018.8 0.2
25/01:00pm 17.2 11.5 12.9 76 2.4 WNW 35 44 19 24 1018.8 1018.8 0.2
25/12:35pm 16.9 11.6 13.2 79 2.1 WNW 33 52 18 28 1018.9 1018.9 0.2
25/12:30pm 17.1 11.1 13.4 79 2.1 NW 37 52 20 28 1018.9 1018.9 0.2
25/12:07pm 16.6 11.9 13.1 80 2.0 NW 30 48 16 26 1019.1 1019.1 0.2
25/12:00pm 16.6 12.3 13.3 81 1.8 NW 28 37 15 20 1019.1 1019.1 0.2
25/11:30am 15.8 11.9 13.3 85 1.4 NW 26 37 14 20 1019.7 1019.7 0.2
25/11:00am 15.3 11.4 13.3 88 1.1 NW 26 32 14 17 1020.1 1020.1 0.2
25/10:30am 14.3 11.4 12.9 91 0.8 NNW 20 30 11 16 1020.2 1020.2 0.2
25/10:00am 13.7 10.8 12.8 94 0.5 NNW 20 26 11 14 1020.2 1020.2 0.2
25/09:30am 13.0 9.9 12.2 95 0.4 NNW 20 26 11 14 1020.2 1020.2 0.2
25/09:00am 12.7 9.2 12.1 96 0.3 NNW 22 30 12 16 1020.3 1020.3 1.0
25/08:30am 12.5 9.2 11.7 95 0.4 NNW 20 28 11 15 1020.1 1020.1 0.6
25/08:00am 12.9 9.5 11.1 89 0.9 NNW 20 35 11 19 1019.9 1019.9 0.2
25/07:30am 12.7 9.5 11.1 90 0.8 N 19 26 10 14 1019.7 1019.7 0.2
25/07:00am 11.9 9.4 11.0 94 0.5 NNW 15 20 8 11 1019.7 1019.7 0.2
25/06:30am 12.1 9.2 11.0 93 0.6 NNW 17 22 9 12 1019.6 1019.6 0.2
25/06:00am 12.0 8.6 10.4 90 0.8 NNW 19 26 10 14 1019.5 1019.5 0.2
25/05:30am 11.7 9.3 10.1 90 0.8 N 13 17 7 9 1019.3 1019.3 0.2
25/05:00am 12.0 10.1 10.4 90 0.8 N 11 17 6 9 1019.0 1019.0 0.2
25/04:30am 12.5 10.5 10.2 86 1.2 N 11 15 6 8 1019.0 1019.0 0.2
25/04:00am 13.2 10.4 11.3 88 1.0 NNW 17 22 9 12 1019.0 1019.0 0.2
25/03:30am 13.0 10.3 11.6 91 0.7 NNW 17 24 9 13 1019.1 1019.1 0.2
25/03:00am 12.7 10.3 11.4 92 0.7 NNW 15 19 8 10 1019.3 1019.3 0.2
25/02:30am 12.7 10.3 11.4 92 0.7 NNW 15 22 8 12 1019.3 1019.3 0.2
25/02:00am 12.8 10.4 11.4 91 0.7 NNW 15 20 8 11 1019.5 1019.5 0.2
25/01:30am 12.7 10.6 11.3 91 0.7 NNW 13 17 7 9 1019.5 1019.5 0.2
25/01:00am 12.9 11.2 11.3 90 0.8 NNW 11 13 6 7 1019.6 1019.6 0.2
25/12:30am 12.7 11.8 11.3 91 0.7 N 7 11 4 6 1019.8 1019.8 0.2
25/12:00am 12.8 11.2 11.4 91 0.7 N 11 13 6 7 1019.8 1019.8 0.2
 
Date/Time
CST
Temp
°C
App
Temp
°C
Dew
Point
°C
Rel
Hum
%
Delta-T
°C
Wind Press
QNH
hPa
Press
MSL
hPa
Rain since
9am
mm
Dir  Spd
km/h
Gust
km/h
Spd
kts
Gust
kts
24/11:30pm 12.8 11.5 11.4 91 0.7 N 9 13 5 7 1020.2 1020.2 0.2
24/11:00pm 12.7 11.0 11.3 91 0.7 NNW 11 13 6 7 1020.4 1020.4 0.2
24/10:30pm 12.7 10.7 11.6 93 0.6 N 13 17 7 9 1020.4 1020.4 0.2
24/10:00pm 12.8 11.6 11.7 93 0.6 N 9 13 5 7 1020.5 1020.5 0.2
24/09:30pm 12.5 10.9 11.6 94 0.5 NNW 11 15 6 8 1020.6 1020.6 0.2
24/09:00pm 12.7 11.1 11.6 93 0.6 NNW 11 15 6 8 1020.8 1020.8 0.2
24/08:30pm 12.6 10.7 11.7 94 0.5 NNW 13 19 7 10 1020.8 1020.8 0.2
24/08:00pm 12.5 11.3 11.6 94 0.5 NNW 9 13 5 7 1020.7 1020.7 0.2
24/07:30pm 12.5 10.9 11.6 94 0.5 NNW 11 15 6 8 1020.6 1020.6 0.2
24/07:00pm 12.5 11.3 11.6 94 0.5 N 9 13 5 7 1020.4 1020.4 0.2
24/06:30pm 12.5 11.2 11.4 93 0.6 NNW 9 11 5 6 1020.4 1020.4 0.2
24/06:00pm 12.6 11.3 11.2 91 0.7 NNW 9 11 5 6 1020.2 1020.2 0.2
24/05:30pm 12.8 12.1 11.5 92 0.7 W 6 7 3 4 1019.9 1019.9 0.2
24/05:00pm 13.2 12.4 11.8 91 0.7 WSW 7 9 4 5 1020.0 1020.0 0.2
24/04:30pm 13.4 12.2 11.6 89 1.0 WSW 9 9 5 5 1019.8 1019.8 0.2
24/04:00pm 13.4 11.8 11.5 88 1.0 W 11 15 6 8 1019.7 1019.7 0.2
24/03:30pm 14.0 9.9 11.5 85 1.3 W 24 35 13 19 1019.6 1019.6 0.2
24/03:00pm 13.7 11.3 11.4 86 1.2 WSW 15 19 8 10 1019.1 1019.1 0.2
24/02:30pm 15.4 12.6 11.4 77 2.1 WNW 17 20 9 11 1018.8 1018.8 0.0
24/02:00pm 14.5 10.2 10.9 79 1.9 W 24 32 13 17 1018.6 1018.6 0.0
24/01:30pm 15.1 11.8 10.9 76 2.2 WSW 19 24 10 13 1018.5 1018.5 0.0
24/01:00pm 15.7 12.3 11.1 74 2.5 W 20 26 11 14 1018.4 1018.4 0.0
24/12:30pm 14.7 11.9 11.3 80 1.8 W 17 24 9 13 1018.7 1018.7 0.0
24/12:00pm 14.9 12.1 11.3 79 1.9 WSW 17 33 9 18 1018.7 1018.7 0.0
24/11:30am 14.9 11.3 10.5 75 2.3 W 20 26 11 14 1018.8 1018.8 0.0
24/11:00am 15.0 11.8 11.2 78 2.0 WSW 19 28 10 15 1018.9 1018.9 0.0
24/10:30am 14.8 11.5 11.0 78 2.0 W 19 24 10 13 1018.8 1018.8 0.0
24/10:00am 14.3 11.4 11.1 81 1.7 W 17 22 9 12 1018.6 1018.6 0.0
24/09:30am 13.0 9.7 10.9 87 1.1 W 19 24 10 13 1018.5 1018.5 0.0
24/09:00am 12.5 10.3 10.7 89 0.9 WNW 13 19 7 10 1018.3 1018.3 2.6
24/08:30am 10.5 8.7 9.4 93 0.5 NW 9 13 5 7 1017.9 1017.9 2.6
24/08:00am 9.5 7.2 8.9 96 0.3 WNW 11 15 6 8 1017.7 1017.7 2.6
24/07:30am 8.9 6.8 8.3 96 0.3 NW 9 13 5 7 1017.0 1017.0 2.6
24/07:00am 8.7 6.2 8.1 96 0.3 NW 11 15 6 8 1016.6 1016.7 2.6
24/06:30am 9.3 6.9 8.7 96 0.3 NW 11 15 6 8 1016.3 1016.4 2.6
24/06:00am 8.8 5.9 8.0 95 0.4 WNW 13 15 7 8 1015.9 1016.0 2.6
24/05:30am 9.5 6.4 8.7 95 0.4 NW 15 17 8 9 1015.5 1015.6 2.6
24/05:00am 9.5 6.7 8.4 93 0.5 WNW 13 17 7 9 1015.0 1015.1 2.6
24/04:30am 10.6 6.4 9.7 94 0.5 W 22 32 12 17 1014.7 1014.8 2.6
24/04:00am 9.7 7.0 8.9 95 0.4 NNW 13 17 7 9 1014.2 1014.2 2.6
24/03:30am 10.0 7.0 9.4 96 0.3 NNW 15 20 8 11 1014.1 1014.1 2.6
24/03:00am 10.2 7.3 9.6 96 0.3 NNW 15 19 8 10 1014.0 1014.0 2.4
24/02:30am 10.8 8.4 10.0 95 0.4 NNW 13 15 7 8 1013.8 1013.8 2.4
24/02:00am 11.3 9.0 10.5 95 0.4 NNW 13 17 7 9 1013.7 1013.7 2.4
24/01:30am 11.6 9.0 10.7 94 0.5 NNW 15 20 8 11 1013.8 1013.8 2.4
24/01:00am 11.5 8.2 10.9 96 0.3 NNW 19 24 10 13 1013.6 1013.6 2.4
24/12:30am 11.2 8.9 10.4 95 0.4 N 13 17 7 9 1013.7 1013.7 2.4
24/12:00am 10.8 8.3 9.7 93 0.6 NNW 13 19 7 10 1013.9 1013.9 2.0
 
Date/Time
CST
Temp
°C
App
Temp
°C
Dew
Point
°C
Rel
Hum
%
Delta-T
°C
Wind Press
QNH
hPa
Press
MSL
hPa
Rain since
9am
mm
Dir  Spd
km/h
Gust
km/h
Spd
kts
Gust
kts
23/11:30pm 11.2 8.4 10.0 92 0.6 NNW 15 22 8 12 1014.0 1014.0 2.0
23/11:00pm 11.5 7.8 10.1 91 0.7 NW 20 28 11 15 1014.0 1014.0 2.0
23/10:30pm 11.9 8.3 10.6 92 0.7 NW 20 30 11 16 1014.0 1014.0 2.0
23/10:00pm 12.0 7.7 10.9 93 0.6 NNW 24 33 13 18 1013.9 1013.9 2.0
23/09:30pm 11.6 7.9 10.3 92 0.7 NNW 20 28 11 15 1013.8 1013.8 2.0
23/09:00pm 11.4 7.7 10.3 93 0.6 NNW 20 26 11 14 1013.8 1013.8 2.0
23/08:30pm 11.7 8.1 10.6 93 0.6 NNW 20 24 11 13 1013.9 1013.9 2.0
23/08:00pm 12.1 8.5 10.5 90 0.8 NNW 20 26 11 14 1014.0 1014.0 2.0
23/07:30pm 12.2 10.0 10.9 92 0.7 NNW 13 20 7 11 1013.9 1013.9 2.0
23/07:00pm 12.3 11.0 11.2 93 0.6 W 9 13 5 7 1014.0 1014.0 1.8
23/06:30pm 12.7 8.6 11.3 91 0.7 W 24 35 13 19 1013.6 1013.6 1.6
23/06:00pm 14.0 11.4 10.8 81 1.7 NW 15 19 8 10 1013.4 1013.4 0.2
23/05:30pm 14.2 11.1 10.4 78 2.0 NW 17 24 9 13 1013.3 1013.3 0.2
23/05:00pm 14.8 11.3 10.2 74 2.4 NW 19 24 10 13 1013.1 1013.1 0.2
23/04:30pm 15.4 11.9 10.2 71 2.7 WNW 19 24 10 13 1013.0 1013.0 0.2
23/04:00pm 16.3 10.8 9.3 63 3.6 NW 28 37 15 20 1013.0 1013.0 0.2
23/03:30pm 16.6 13.8 11.3 71 2.9 NW 17 22 9 12 1012.9 1012.9 0.2

Other Formats:

Comma delimited format used in spreadsheet applications
http://www.bom.gov.au/fwo/IDS60801/IDS60801.94820.axf

JavaScript Object Notation format (JSON) in row-major order
http://www.bom.gov.au/fwo/IDS60801/IDS60801.94820.json